Time;durP1;ratioP1;P1;durP2;ratioP2;P2;SDS_P1;SDS_P2;PMS_P1;PMS_P2;Temp;Humidity;BMP_temperature;BMP_pressure;BME280_temperature;BME280_humidity;BME280_pressure;Samples;Min_cycle;Max_cycle;Signal;HPM_P1;HPM_P2
2024/03/09 00:00:31;;;;;;;112.63;51.73;;;;;;;;;;765208;181;882690;-58
2024/03/09 00:02:58;;;;;;;78.50;42.50;;;;;;;;;;759746;182;919749;-57
2024/03/09 00:05:24;;;;;;;68.75;40.70;;;;;;;;;;759959;182;918795;-58
2024/03/09 00:07:48;;;;;;;84.43;42.67;;;;;;;;;;764370;184;919448;-58
2024/03/09 00:10:15;;;;;;;71.80;39.33;;;;;;;;;;762197;184;918357;-57
2024/03/09 00:12:40;;;;;;;70.20;34.67;;;;;;;;;;758725;184;920235;-57
2024/03/09 00:15:08;;;;;;;70.77;38.73;;;;;;;;;;770013;180;919159;-58
2024/03/09 00:17:32;;;;;;;66.27;37.43;;;;;;;;;;774927;179;942936;-57
2024/03/09 00:19:58;;;;;;;81.03;38.60;;;;;;;;;;780310;179;920766;-58
2024/03/09 00:22:26;;;;;;;68.03;36.90;;;;;;;;;;776094;177;917546;-58
2024/03/09 00:24:52;;;;;;;59.30;35.60;;;;;;;;;;787548;177;920118;-59
2024/03/09 00:27:23;;;;;;;74.50;37.87;;;;;;;;;;780595;177;913703;-58
2024/03/09 00:29:43;;;;;;;78.22;37.13;;;;;;;;;;781429;176;938094;-58
2024/03/09 00:32:11;;;;;;;90.70;40.73;;;;;;;;;;787109;177;917589;-57
2024/03/09 00:34:35;;;;;;;71.80;38.23;;;;;;;;;;784090;177;855713;-57
2024/03/09 00:37:02;;;;;;;83.53;38.88;;;;;;;;;;779243;177;919368;-57
2024/03/09 00:39:27;;;;;;;79.37;35.73;;;;;;;;;;782584;178;818278;-57
2024/03/09 00:41:53;;;;;;;77.83;35.77;;;;;;;;;;770403;180;821633;-57
2024/03/09 00:44:19;;;;;;;78.70;39.63;;;;;;;;;;781721;176;942675;-58
2024/03/09 00:46:45;;;;;;;83.80;43.40;;;;;;;;;;783801;177;1023322;-58
2024/03/09 00:49:13;;;;;;;88.10;41.77;;;;;;;;;;788106;177;823070;-59
2024/03/09 00:51:37;;;;;;;85.73;42.47;;;;;;;;;;779073;177;816067;-57
2024/03/09 00:54:02;;;;;;;88.47;38.83;;;;;;;;;;778846;177;816404;-57
2024/03/09 00:56:29;;;;;;;77.47;38.58;;;;;;;;;;787429;177;919817;-59
2024/03/09 00:58:56;;;;;;;65.10;35.70;;;;;;;;;;779854;177;853542;-57
2024/03/09 01:01:22;;;;;;;87.20;40.30;;;;;;;;;;780847;177;919766;-58
2024/03/09 01:03:46;;;;;;;76.30;38.30;;;;;;;;;;776172;177;916160;-57
2024/03/09 01:06:12;;;;;;;84.43;39.83;;;;;;;;;;778123;179;987237;-58
2024/03/09 01:08:38;;;;;;;74.70;34.80;;;;;;;;;;782429;177;920761;-58
2024/03/09 01:11:05;;;;;;;77.83;39.60;;;;;;;;;;772097;176;918232;-58
2024/03/09 01:13:29;;;;;;;76.47;38.17;;;;;;;;;;784091;177;918325;-57
2024/03/09 01:15:55;;;;;;;76.00;41.80;;;;;;;;;;776296;177;919629;-58
2024/03/09 01:18:21;;;;;;;71.20;38.38;;;;;;;;;;780829;177;918809;-57
2024/03/09 01:20:47;;;;;;;79.30;38.20;;;;;;;;;;788436;175;913737;-57
2024/03/09 01:23:14;;;;;;;65.37;32.73;;;;;;;;;;781551;177;919433;-59
2024/03/09 01:25:38;;;;;;;73.53;40.00;;;;;;;;;;776968;177;918045;-57
2024/03/09 01:28:05;;;;;;;79.23;41.40;;;;;;;;;;776910;177;864592;-58
2024/03/09 01:30:31;;;;;;;85.07;38.67;;;;;;;;;;772007;179;918219;-58
2024/03/09 01:32:56;;;;;;;79.33;38.70;;;;;;;;;;773268;177;841668;-57
2024/03/09 01:35:23;;;;;;;87.33;37.87;;;;;;;;;;779080;177;919530;-58
2024/03/09 01:37:48;;;;;;;84.10;37.10;;;;;;;;;;780572;177;920654;-57
2024/03/09 01:40:14;;;;;;;65.40;30.30;;;;;;;;;;779345;176;921197;-57
2024/03/09 01:42:42;;;;;;;69.93;37.90;;;;;;;;;;779816;175;921691;-58
2024/03/09 01:45:07;;;;;;;75.97;34.50;;;;;;;;;;785738;177;815514;-57
2024/03/09 01:47:32;;;;;;;75.17;36.30;;;;;;;;;;777251;177;915956;-58
2024/03/09 01:49:58;;;;;;;79.60;40.17;;;;;;;;;;778283;177;819205;-58
2024/03/09 01:52:25;;;;;;;71.10;37.77;;;;;;;;;;785398;177;773931;-57
2024/03/09 01:54:51;;;;;;;72.67;36.73;;;;;;;;;;780134;178;870215;-59
2024/03/09 01:57:17;;;;;;;77.70;37.93;;;;;;;;;;772329;177;919535;-57
2024/03/09 01:59:42;;;;;;;79.90;40.60;;;;;;;;;;782369;177;929133;-57
2024/03/09 02:02:09;;;;;;;88.10;42.40;;;;;;;;;;784402;177;817999;-58
2024/03/09 02:04:34;;;;;;;71.40;39.00;;;;;;;;;;779987;177;816145;-57
2024/03/09 02:06:59;;;;;;;67.70;37.27;;;;;;;;;;778079;178;901958;-58
2024/03/09 02:09:28;;;;;;;72.07;34.63;;;;;;;;;;784660;177;917876;-57
2024/03/09 02:11:53;;;;;;;67.00;34.53;;;;;;;;;;785836;177;817630;-57
2024/03/09 02:14:19;;;;;;;70.93;33.67;;;;;;;;;;781836;177;917486;-59
2024/03/09 02:16:45;;;;;;;79.43;39.25;;;;;;;;;;785807;176;911240;-59
2024/03/09 02:19:14;;;;;;;82.37;38.57;;;;;;;;;;776978;179;868733;-57
2024/03/09 02:21:40;;;;;;;77.78;39.80;;;;;;;;;;783514;176;918649;-57
2024/03/09 02:24:07;;;;;;;69.10;36.40;;;;;;;;;;779001;177;920844;-59
2024/03/09 02:26:36;;;;;;;71.17;38.67;;;;;;;;;;778250;179;842900;-58
2024/03/09 02:28:58;;;;;;;74.47;37.67;;;;;;;;;;773617;177;916610;-58
2024/03/09 02:31:24;;;;;;;69.57;38.67;;;;;;;;;;777494;179;919207;-58
2024/03/09 02:33:52;;;;;;;66.50;35.63;;;;;;;;;;781941;177;817064;-57
2024/03/09 02:36:17;;;;;;;60.87;33.80;;;;;;;;;;774639;179;839072;-60
2024/03/09 02:38:42;;;;;;;74.27;35.97;;;;;;;;;;774746;177;919589;-57
2024/03/09 02:41:08;;;;;;;82.13;39.10;;;;;;;;;;775805;176;915507;-59
2024/03/09 02:43:34;;;;;;;73.17;36.10;;;;;;;;;;789301;176;914233;-58
2024/03/09 02:46:01;;;;;;;67.33;35.97;;;;;;;;;;781284;176;915979;-58
2024/03/09 02:48:27;;;;;;;70.30;36.57;;;;;;;;;;777067;176;950040;-57
2024/03/09 02:50:52;;;;;;;62.23;33.30;;;;;;;;;;787770;177;919432;-57
2024/03/09 02:53:18;;;;;;;53.17;29.00;;;;;;;;;;779470;176;1444938;-57
2024/03/09 02:55:45;;;;;;;55.43;30.80;;;;;;;;;;780392;178;903620;-57
2024/03/09 02:58:12;;;;;;;63.50;30.53;;;;;;;;;;786919;177;817128;-57
2024/03/09 03:00:36;;;;;;;65.97;33.63;;;;;;;;;;780098;175;919118;-57
2024/03/09 03:05:34;;;;;;;59.10;34.67;;;;;;;;;;780440;177;921488;-57
2024/03/09 03:08:00;;;;;;;60.10;33.07;;;;;;;;;;786987;177;816909;-57
2024/03/09 03:10:25;;;;;;;69.63;34.63;;;;;;;;;;779919;177;879398;-57
2024/03/09 03:12:51;;;;;;;61.97;33.27;;;;;;;;;;779807;177;919657;-57
2024/03/09 03:15:19;;;;;;;71.47;35.37;;;;;;;;;;784244;177;917993;-58
2024/03/09 03:17:44;;;;;;;66.80;34.07;;;;;;;;;;785275;177;919780;-57
2024/03/09 03:20:09;;;;;;;63.67;32.03;;;;;;;;;;780075;176;900213;-58
2024/03/09 03:22:38;;;;;;;73.17;36.30;;;;;;;;;;778972;177;875992;-58
2024/03/09 03:25:01;;;;;;;62.95;36.05;;;;;;;;;;780473;178;921328;-58
2024/03/09 03:27:27;;;;;;;73.50;34.63;;;;;;;;;;779878;177;816383;-58
2024/03/09 03:29:56;;;;;;;59.87;34.20;;;;;;;;;;778452;177;819195;-58
2024/03/09 03:32:19;;;;;;;73.35;36.85;;;;;;;;;;778948;177;812787;-57
2024/03/09 03:34:46;;;;;;;74.97;36.83;;;;;;;;;;782649;177;878505;-58
2024/03/09 03:37:10;;;;;;;61.50;34.87;;;;;;;;;;772778;177;910885;-57
2024/03/09 03:39:38;;;;;;;69.93;40.00;;;;;;;;;;779856;177;938758;-56
2024/03/09 03:42:02;;;;;;;76.60;40.07;;;;;;;;;;773693;177;869613;-59
2024/03/09 03:44:30;;;;;;;71.47;36.87;;;;;;;;;;780159;176;894931;-57
2024/03/09 03:46:54;;;;;;;72.03;39.60;;;;;;;;;;777722;177;862543;-58
2024/03/09 03:49:20;;;;;;;61.37;32.70;;;;;;;;;;782185;177;917901;-57
2024/03/09 03:51:46;;;;;;;63.43;34.20;;;;;;;;;;776577;177;922728;-58
2024/03/09 03:54:11;;;;;;;63.50;32.25;;;;;;;;;;770655;177;918575;-59
2024/03/09 03:56:37;;;;;;;54.87;31.47;;;;;;;;;;780161;177;882654;-57
2024/03/09 03:59:03;;;;;;;60.17;32.50;;;;;;;;;;781078;177;871125;-57
2024/03/09 04:01:29;;;;;;;68.40;35.47;;;;;;;;;;777144;176;918182;-58
2024/03/09 04:03:55;;;;;;;66.30;35.20;;;;;;;;;;787805;176;919032;-57
2024/03/09 04:06:21;;;;;;;67.87;36.63;;;;;;;;;;781740;177;921734;-58
2024/03/09 04:08:46;;;;;;;74.93;36.50;;;;;;;;;;774992;177;920731;-57
2024/03/09 04:11:12;;;;;;;65.20;34.23;;;;;;;;;;778505;177;922419;-58
2024/03/09 04:13:38;;;;;;;77.57;33.37;;;;;;;;;;776695;180;814246;-58
2024/03/09 04:16:05;;;;;;;65.87;34.93;;;;;;;;;;780151;177;919811;-58
2024/03/09 04:18:31;;;;;;;78.60;34.30;;;;;;;;;;777052;178;865375;-57
2024/03/09 04:20:56;;;;;;;69.63;37.13;;;;;;;;;;782187;177;813778;-58
2024/03/09 04:23:22;;;;;;;65.20;33.87;;;;;;;;;;780838;177;918157;-57
2024/03/09 04:25:50;;;;;;;51.60;27.60;;;;;;;;;;781716;177;920125;-58
2024/03/09 04:28:20;;;;;;;48.00;26.93;;;;;;;;;;778532;178;907410;-58
2024/03/09 04:30:42;;;;;;;52.00;26.33;;;;;;;;;;782478;177;872608;-57
2024/03/09 04:33:08;;;;;;;41.20;22.93;;;;;;;;;;783634;177;720139;-58
2024/03/09 04:35:33;;;;;;;32.38;18.33;;;;;;;;;;779721;178;919382;-57
2024/03/09 04:37:58;;;;;;;27.30;16.20;;;;;;;;;;769127;180;838909;-57
2024/03/09 04:40:24;;;;;;;29.97;18.17;;;;;;;;;;782488;177;919578;-57
2024/03/09 04:42:49;;;;;;;31.80;17.10;;;;;;;;;;776535;177;919129;-58
2024/03/09 04:45:22;;;;;;;25.43;15.77;;;;;;;;;;786494;177;796351;-58
2024/03/09 04:47:45;;;;;;;31.83;16.40;;;;;;;;;;777076;176;922496;-57
2024/03/09 04:50:12;;;;;;;24.77;13.80;;;;;;;;;;778162;177;919409;-57
2024/03/09 04:52:37;;;;;;;23.80;13.03;;;;;;;;;;785795;177;917259;-59
2024/03/09 04:55:05;;;;;;;25.60;13.60;;;;;;;;;;777097;177;918292;-58
2024/03/09 04:57:35;;;;;;;27.33;13.47;;;;;;;;;;773174;179;826327;-57
2024/03/09 04:59:54;;;;;;;19.03;10.93;;;;;;;;;;778104;176;871748;-57
2024/03/09 05:02:20;;;;;;;25.60;13.37;;;;;;;;;;784368;179;910978;-59
2024/03/09 05:04:46;;;;;;;23.47;12.73;;;;;;;;;;779379;176;876979;-59
2024/03/09 05:07:12;;;;;;;23.13;12.77;;;;;;;;;;781230;177;897745;-57
2024/03/09 05:09:38;;;;;;;22.10;12.40;;;;;;;;;;786311;177;819475;-57
2024/03/09 05:12:04;;;;;;;17.73;10.53;;;;;;;;;;781828;177;921452;-59
2024/03/09 05:14:30;;;;;;;25.53;12.67;;;;;;;;;;778450;176;909757;-58
2024/03/09 05:16:56;;;;;;;22.10;12.67;;;;;;;;;;784505;177;896877;-57
2024/03/09 05:19:21;;;;;;;23.20;12.37;;;;;;;;;;780427;177;876680;-58
2024/03/09 05:21:47;;;;;;;18.73;10.30;;;;;;;;;;776458;176;919424;-57
2024/03/09 05:24:14;;;;;;;20.57;11.37;;;;;;;;;;774811;177;1021845;-58
2024/03/09 05:26:42;;;;;;;19.43;11.93;;;;;;;;;;771454;180;848984;-59
2024/03/09 05:29:05;;;;;;;17.98;10.70;;;;;;;;;;780584;177;867285;-59
2024/03/09 05:31:31;;;;;;;17.80;10.47;;;;;;;;;;777728;178;919103;-57
2024/03/09 05:33:57;;;;;;;21.10;12.23;;;;;;;;;;783573;177;916421;-57
2024/03/09 05:36:23;;;;;;;18.63;11.43;;;;;;;;;;781220;177;862543;-58
2024/03/09 05:38:49;;;;;;;19.30;11.87;;;;;;;;;;782493;175;919244;-58
2024/03/09 05:41:15;;;;;;;22.53;12.33;;;;;;;;;;777925;178;919368;-59
2024/03/09 05:43:42;;;;;;;22.70;11.70;;;;;;;;;;776725;177;917904;-57
2024/03/09 05:46:07;;;;;;;19.90;11.40;;;;;;;;;;782260;177;916671;-59
2024/03/09 05:48:32;;;;;;;26.97;13.03;;;;;;;;;;781220;177;916805;-59
2024/03/09 05:50:58;;;;;;;30.37;15.70;;;;;;;;;;781737;179;954967;-57
2024/03/09 05:53:26;;;;;;;25.98;14.32;;;;;;;;;;779301;177;859630;-58
2024/03/09 05:55:51;;;;;;;25.07;13.60;;;;;;;;;;777423;177;919577;-58
2024/03/09 05:58:19;;;;;;;38.27;22.37;;;;;;;;;;783822;177;815310;-58
2024/03/09 06:00:42;;;;;;;24.93;14.17;;;;;;;;;;776244;177;820528;-59
2024/03/09 06:03:09;;;;;;;25.20;14.13;;;;;;;;;;781812;177;885573;-58
2024/03/09 06:05:33;;;;;;;23.50;13.77;;;;;;;;;;781953;177;817072;-58
2024/03/09 06:07:59;;;;;;;23.70;12.93;;;;;;;;;;781160;176;808657;-59
2024/03/09 06:10:25;;;;;;;19.00;11.03;;;;;;;;;;779255;176;836766;-58
2024/03/09 06:12:51;;;;;;;23.57;13.20;;;;;;;;;;782604;177;819649;-59
2024/03/09 06:15:19;;;;;;;21.27;12.03;;;;;;;;;;780201;176;919932;-59
2024/03/09 06:17:43;;;;;;;18.03;11.07;;;;;;;;;;775651;177;920405;-58
2024/03/09 06:20:09;;;;;;;19.53;11.27;;;;;;;;;;781999;176;811063;-58
2024/03/09 06:22:35;;;;;;;24.33;12.37;;;;;;;;;;782691;176;1008203;-58
2024/03/09 06:25:01;;;;;;;20.60;12.43;;;;;;;;;;778676;177;805032;-58
2024/03/09 06:27:27;;;;;;;19.80;12.35;;;;;;;;;;780043;175;925958;-58
2024/03/09 06:29:55;;;;;;;17.47;10.00;;;;;;;;;;785834;176;807560;-59
2024/03/09 06:32:18;;;;;;;18.27;10.50;;;;;;;;;;783634;177;892072;-58
2024/03/09 06:34:44;;;;;;;19.20;11.00;;;;;;;;;;780238;177;915042;-59
2024/03/09 06:37:10;;;;;;;21.03;12.73;;;;;;;;;;786618;177;881855;-59
2024/03/09 06:39:38;;;;;;;22.97;13.37;;;;;;;;;;778982;175;1005595;-59
2024/03/09 06:42:01;;;;;;;24.20;11.47;;;;;;;;;;779808;177;927216;-58
2024/03/09 06:44:27;;;;;;;24.37;13.30;;;;;;;;;;779198;177;955914;-59
2024/03/09 06:46:53;;;;;;;20.25;10.65;;;;;;;;;;783862;177;929496;-60
2024/03/09 06:49:21;;;;;;;19.00;11.97;;;;;;;;;;778149;177;919640;-58
2024/03/09 06:51:45;;;;;;;26.07;13.40;;;;;;;;;;779465;177;917607;-60
2024/03/09 06:54:11;;;;;;;17.77;10.00;;;;;;;;;;781508;177;920414;-58
2024/03/09 06:56:37;;;;;;;21.97;11.37;;;;;;;;;;775690;177;915335;-58
2024/03/09 06:59:03;;;;;;;23.00;13.47;;;;;;;;;;778897;177;818394;-60
2024/03/09 07:01:30;;;;;;;16.33;10.60;;;;;;;;;;781461;177;816055;-59
2024/03/09 07:03:55;;;;;;;17.63;10.43;;;;;;;;;;780476;177;918765;-58
2024/03/09 07:06:20;;;;;;;22.50;10.90;;;;;;;;;;776831;177;918950;-58
2024/03/09 07:08:46;;;;;;;14.73;8.90;;;;;;;;;;779637;177;919029;-60
2024/03/09 07:11:12;;;;;;;18.33;9.93;;;;;;;;;;777773;178;817426;-60
2024/03/09 07:13:38;;;;;;;20.97;11.63;;;;;;;;;;780842;176;817108;-58
2024/03/09 07:16:04;;;;;;;18.20;11.00;;;;;;;;;;783490;177;815941;-58
2024/03/09 07:18:33;;;;;;;19.50;10.47;;;;;;;;;;785699;177;912291;-58
2024/03/09 07:20:56;;;;;;;45.57;23.77;;;;;;;;;;780531;177;916036;-59
2024/03/09 07:23:22;;;;;;;16.27;10.17;;;;;;;;;;778980;177;840870;-60
2024/03/09 07:25:49;;;;;;;15.13;8.80;;;;;;;;;;784801;176;879895;-59
2024/03/09 07:28:14;;;;;;;20.70;9.83;;;;;;;;;;781913;176;866939;-60
2024/03/09 07:30:40;;;;;;;42.83;28.47;;;;;;;;;;776019;177;933916;-59
2024/03/09 07:33:07;;;;;;;16.17;10.10;;;;;;;;;;777691;177;914566;-59
2024/03/09 07:35:33;;;;;;;18.07;12.33;;;;;;;;;;785242;179;919288;-59
2024/03/09 07:37:59;;;;;;;12.97;7.27;;;;;;;;;;778710;177;857298;-58
2024/03/09 07:40:25;;;;;;;13.80;7.63;;;;;;;;;;782715;176;919059;-60
2024/03/09 07:42:53;;;;;;;12.80;7.60;;;;;;;;;;786061;177;625318;-59
2024/03/09 07:45:22;;;;;;;24.13;13.10;;;;;;;;;;785033;177;689392;-59
2024/03/09 07:47:46;;;;;;;9.77;6.72;;;;;;;;;;785606;177;854367;-60
2024/03/09 07:50:34;;;;;;;17.00;9.03;;;;;;;;;;783924;177;914640;-59
2024/03/09 07:53:00;;;;;;;12.30;8.50;;;;;;;;;;778068;177;916008;-68
2024/03/09 07:55:26;;;;;;;13.60;8.40;;;;;;;;;;791735;177;635674;-68
2024/03/09 07:57:52;;;;;;;13.23;8.30;;;;;;;;;;786615;177;630781;-67
2024/03/09 08:00:19;;;;;;;17.07;8.37;;;;;;;;;;787041;177;955803;-67
2024/03/09 08:02:46;;;;;;;14.40;8.03;;;;;;;;;;787119;178;621309;-67
2024/03/09 08:05:14;;;;;;;13.83;8.13;;;;;;;;;;782286;178;915284;-67
2024/03/09 08:07:35;;;;;;;11.63;7.13;;;;;;;;;;782364;175;962800;-67
2024/03/09 08:10:01;;;;;;;13.70;8.57;;;;;;;;;;792093;175;654332;-67
2024/03/09 08:12:27;;;;;;;17.10;9.03;;;;;;;;;;787486;175;920029;-68
2024/03/09 08:14:53;;;;;;;11.20;8.27;;;;;;;;;;789749;177;709687;-68
2024/03/09 08:17:21;;;;;;;13.43;7.77;;;;;;;;;;781870;178;630425;-68
2024/03/09 08:19:46;;;;;;;16.07;8.17;;;;;;;;;;781415;177;1040687;-68
2024/03/09 08:22:12;;;;;;;11.67;5.77;;;;;;;;;;778692;175;935924;-68
2024/03/09 08:24:37;;;;;;;13.27;7.50;;;;;;;;;;775628;177;1122306;-68
2024/03/09 08:27:03;;;;;;;14.27;8.90;;;;;;;;;;781945;178;1023643;-68
2024/03/09 08:29:31;;;;;;;12.30;7.00;;;;;;;;;;786276;175;1020786;-69
2024/03/09 08:31:57;;;;;;;11.85;7.85;;;;;;;;;;760314;181;814789;-68
2024/03/09 08:34:21;;;;;;;11.67;7.20;;;;;;;;;;787625;178;814720;-68
2024/03/09 08:36:48;;;;;;;11.40;7.20;;;;;;;;;;785424;177;939599;-68
2024/03/09 08:39:13;;;;;;;15.43;6.90;;;;;;;;;;784171;174;817643;-68
2024/03/09 08:41:38;;;;;;;13.30;7.40;;;;;;;;;;778912;177;916663;-69
2024/03/09 08:44:07;;;;;;;5.72;3.47;;;;;;;;;;783634;177;914748;-69
2024/03/09 08:46:31;;;;;;;12.10;7.70;;;;;;;;;;780456;177;814658;-68
2024/03/09 08:48:57;;;;;;;11.10;6.90;;;;;;;;;;777810;177;916279;-67
2024/03/09 08:51:22;;;;;;;14.30;8.57;;;;;;;;;;791130;174;915222;-68
2024/03/09 08:53:48;;;;;;;12.57;8.57;;;;;;;;;;785799;176;924404;-67
2024/03/09 08:56:15;;;;;;;10.88;6.65;;;;;;;;;;780213;178;923216;-67
2024/03/09 08:58:42;;;;;;;12.70;7.73;;;;;;;;;;784184;178;924341;-67
2024/03/09 09:01:09;;;;;;;16.83;7.47;;;;;;;;;;786493;175;877409;-67
2024/03/09 09:03:35;;;;;;;13.27;8.13;;;;;;;;;;781738;176;1111914;-66
2024/03/09 09:06:01;;;;;;;12.00;7.90;;;;;;;;;;783322;176;1020562;-66
2024/03/09 09:08:27;;;;;;;12.70;7.30;;;;;;;;;;783889;177;919389;-67
2024/03/09 09:10:53;;;;;;;10.90;6.97;;;;;;;;;;765574;181;933466;-67
2024/03/09 09:13:18;;;;;;;11.27;6.33;;;;;;;;;;753954;183;920474;-67
2024/03/09 09:15:46;;;;;;;10.60;6.87;;;;;;;;;;783858;177;919868;-67
2024/03/09 09:18:10;;;;;;;11.23;6.83;;;;;;;;;;783338;175;922126;-70
2024/03/09 09:20:36;;;;;;;8.47;4.67;;;;;;;;;;783726;177;917422;-68
2024/03/09 09:23:02;;;;;;;9.23;5.13;;;;;;;;;;784123;177;888160;-68
2024/03/09 09:25:28;;;;;;;11.37;6.10;;;;;;;;;;782747;177;940182;-67
2024/03/09 09:27:54;;;;;;;8.98;6.20;;;;;;;;;;777430;175;915435;-68
2024/03/09 09:30:19;;;;;;;9.77;5.17;;;;;;;;;;778517;175;918923;-67
2024/03/09 09:32:45;;;;;;;8.63;5.63;;;;;;;;;;782953;177;917072;-67
2024/03/09 09:35:11;;;;;;;10.77;6.30;;;;;;;;;;781077;174;941778;-68
2024/03/09 09:37:37;;;;;;;8.83;4.80;;;;;;;;;;782902;177;917716;-68
2024/03/09 09:40:03;;;;;;;8.37;5.80;;;;;;;;;;783511;177;926198;-68
2024/03/09 09:42:30;;;;;;;9.97;5.47;;;;;;;;;;780120;177;923603;-68
2024/03/09 09:44:55;;;;;;;10.40;6.20;;;;;;;;;;778502;177;903897;-68
2024/03/09 09:47:21;;;;;;;8.67;6.60;;;;;;;;;;789570;175;912419;-68
2024/03/09 09:49:47;;;;;;;9.30;6.30;;;;;;;;;;786037;177;814804;-68
2024/03/09 09:52:12;;;;;;;6.33;4.53;;;;;;;;;;777774;177;937792;-67
2024/03/09 09:54:38;;;;;;;8.87;5.70;;;;;;;;;;779949;178;816260;-68
2024/03/09 09:57:04;;;;;;;11.43;5.83;;;;;;;;;;783726;175;918629;-67
2024/03/09 09:59:30;;;;;;;9.67;5.07;;;;;;;;;;778157;177;918970;-68
2024/03/09 10:01:56;;;;;;;15.03;5.57;;;;;;;;;;784466;173;944153;-68
2024/03/09 10:04:22;;;;;;;10.90;5.78;;;;;;;;;;791036;176;919442;-68
2024/03/09 10:06:50;;;;;;;9.10;5.07;;;;;;;;;;781576;178;918931;-68
2024/03/09 10:09:28;;;;;;;7.07;3.97;;;;;;;;;;780118;177;933991;-68
2024/03/09 10:11:54;;;;;;;12.27;7.07;;;;;;;;;;778385;175;917278;-68
2024/03/09 10:14:27;;;;;;;9.80;6.33;;;;;;;;;;783323;178;926927;-68
2024/03/09 10:16:52;;;;;;;9.13;5.70;;;;;;;;;;778859;179;918271;-68
2024/03/09 10:19:18;;;;;;;11.17;5.53;;;;;;;;;;779389;178;916033;-68
2024/03/09 10:21:45;;;;;;;7.47;4.55;;;;;;;;;;782541;177;918896;-68
2024/03/09 10:24:10;;;;;;;8.10;5.77;;;;;;;;;;787737;175;917807;-68
2024/03/09 10:26:36;;;;;;;10.98;6.32;;;;;;;;;;782417;174;922091;-68
2024/03/09 10:29:02;;;;;;;10.87;6.53;;;;;;;;;;783055;174;920139;-68
2024/03/09 10:31:27;;;;;;;14.40;6.53;;;;;;;;;;787988;178;919026;-67
2024/03/09 10:33:53;;;;;;;12.47;5.43;;;;;;;;;;784162;177;950467;-68
2024/03/09 10:36:21;;;;;;;10.53;7.27;;;;;;;;;;785134;177;918373;-67
2024/03/09 10:38:46;;;;;;;15.20;5.68;;;;;;;;;;784857;177;917543;-69
2024/03/09 10:41:12;;;;;;;12.10;6.37;;;;;;;;;;781750;177;916913;-67
2024/03/09 10:43:38;;;;;;;10.00;6.17;;;;;;;;;;781033;175;919307;-68
2024/03/09 10:46:05;;;;;;;11.77;6.77;;;;;;;;;;781523;175;886347;-68
2024/03/09 10:48:30;;;;;;;12.10;6.67;;;;;;;;;;789819;177;917852;-67
2024/03/09 10:51:14;;;;;;;8.83;4.67;;;;;;;;;;785541;177;920987;-68
2024/03/09 10:53:43;;;;;;;10.93;6.40;;;;;;;;;;779743;177;913284;-68
2024/03/09 10:56:09;;;;;;;31.80;22.00;;;;;;;;;;783561;177;923240;-68
2024/03/09 10:58:35;;;;;;;16.77;11.65;;;;;;;;;;782402;178;918092;-68
2024/03/09 11:01:01;;;;;;;14.83;10.60;;;;;;;;;;784596;177;623447;-68
2024/03/09 11:03:30;;;;;;;9.73;5.93;;;;;;;;;;782203;177;921671;-67
2024/03/09 11:05:53;;;;;;;9.37;6.20;;;;;;;;;;785422;176;625961;-68
2024/03/09 11:08:19;;;;;;;8.87;5.53;;;;;;;;;;789159;177;914038;-66
2024/03/09 11:10:46;;;;;;;9.17;6.30;;;;;;;;;;780387;178;914708;-66
2024/03/09 11:13:14;;;;;;;9.10;5.60;;;;;;;;;;780081;175;633647;-66
2024/03/09 11:15:40;;;;;;;11.20;6.10;;;;;;;;;;783579;177;680275;-67
2024/03/09 11:18:06;;;;;;;7.93;5.30;;;;;;;;;;780111;177;1018439;-67
2024/03/09 11:20:32;;;;;;;10.70;6.43;;;;;;;;;;783368;176;917122;-66
2024/03/09 11:22:58;;;;;;;7.93;5.00;;;;;;;;;;782159;176;918541;-67
2024/03/09 11:25:30;;;;;;;7.63;5.10;;;;;;;;;;788996;173;918844;-66
2024/03/09 11:27:56;;;;;;;7.67;4.53;;;;;;;;;;781283;176;869031;-67
2024/03/09 11:30:25;;;;;;;7.20;4.97;;;;;;;;;;782706;176;899051;-66
2024/03/09 11:32:47;;;;;;;12.93;7.77;;;;;;;;;;786857;174;952237;-66
2024/03/09 11:35:32;;;;;;;9.50;6.50;;;;;;;;;;778006;175;920933;-66
2024/03/09 11:37:59;;;;;;;12.27;5.87;;;;;;;;;;779688;177;918673;-67
2024/03/09 11:40:23;;;;;;;6.97;5.50;;;;;;;;;;780240;176;916890;-67
2024/03/09 11:42:50;;;;;;;9.33;4.90;;;;;;;;;;778115;177;916362;-67
2024/03/09 11:45:15;;;;;;;9.07;5.53;;;;;;;;;;789286;175;913443;-66
2024/03/09 11:47:41;;;;;;;9.47;5.77;;;;;;;;;;779808;177;917812;-66
2024/03/09 11:50:07;;;;;;;13.40;6.83;;;;;;;;;;780212;177;917794;-66
2024/03/09 11:52:33;;;;;;;16.40;9.17;;;;;;;;;;788805;175;914502;-66
2024/03/09 11:54:59;;;;;;;13.57;8.17;;;;;;;;;;783280;174;920448;-66
2024/03/09 11:57:25;;;;;;;10.33;6.73;;;;;;;;;;782890;177;918686;-67
2024/03/09 11:59:51;;;;;;;13.97;7.87;;;;;;;;;;789640;177;638120;-67
2024/03/09 12:02:19;;;;;;;10.60;6.50;;;;;;;;;;783062;174;686438;-66
2024/03/09 12:04:46;;;;;;;11.30;6.33;;;;;;;;;;780730;178;918735;-66
2024/03/09 12:07:09;;;;;;;10.50;6.70;;;;;;;;;;781616;175;676922;-66
2024/03/09 12:09:35;;;;;;;8.93;5.90;;;;;;;;;;780141;178;1017037;-66
2024/03/09 12:12:01;;;;;;;10.80;6.18;;;;;;;;;;784728;175;788748;-66
2024/03/09 12:14:26;;;;;;;11.40;6.90;;;;;;;;;;786120;175;676936;-66
2024/03/09 12:16:53;;;;;;;9.77;6.30;;;;;;;;;;785275;175;676094;-67
2024/03/09 12:19:18;;;;;;;11.87;6.60;;;;;;;;;;779112;175;918126;-67
2024/03/09 12:21:44;;;;;;;10.77;7.13;;;;;;;;;;777334;178;932206;-66
2024/03/09 12:24:10;;;;;;;12.23;6.70;;;;;;;;;;786796;177;1121425;-67
2024/03/09 12:26:36;;;;;;;11.00;5.90;;;;;;;;;;785050;174;919061;-66
2024/03/09 12:29:03;;;;;;;11.10;6.78;;;;;;;;;;784266;178;917336;-66
2024/03/09 12:31:27;;;;;;;10.00;6.47;;;;;;;;;;782609;177;625571;-67
2024/03/09 12:33:54;;;;;;;18.33;8.93;;;;;;;;;;773812;181;642703;-67
2024/03/09 12:36:20;;;;;;;13.70;8.40;;;;;;;;;;782176;177;909304;-66
2024/03/09 12:38:46;;;;;;;13.27;6.87;;;;;;;;;;782579;175;915754;-66
2024/03/09 12:41:17;;;;;;;13.53;6.80;;;;;;;;;;786071;177;868899;-66
2024/03/09 12:43:44;;;;;;;15.77;8.57;;;;;;;;;;777447;179;918938;-66
2024/03/09 12:46:09;;;;;;;14.70;7.33;;;;;;;;;;777876;177;916794;-67
2024/03/09 12:48:35;;;;;;;13.23;8.07;;;;;;;;;;766302;179;994370;-66
2024/03/09 12:51:02;;;;;;;13.97;8.40;;;;;;;;;;768369;180;916258;-67
2024/03/09 12:53:27;;;;;;;12.20;7.33;;;;;;;;;;783068;174;919953;-66
2024/03/09 12:55:52;;;;;;;10.47;6.53;;;;;;;;;;784098;177;925703;-67
2024/03/09 12:58:19;;;;;;;14.17;8.13;;;;;;;;;;789787;177;873806;-66
2024/03/09 13:00:47;;;;;;;10.70;7.50;;;;;;;;;;784667;177;919748;-67
2024/03/09 13:03:12;;;;;;;9.30;5.97;;;;;;;;;;783834;177;919029;-66
2024/03/09 13:05:38;;;;;;;9.67;6.40;;;;;;;;;;782354;175;915593;-67
2024/03/09 13:08:07;;;;;;;13.17;8.77;;;;;;;;;;785212;177;918989;-67
2024/03/09 13:10:31;;;;;;;13.20;9.40;;;;;;;;;;782258;177;919358;-67
2024/03/09 13:12:57;;;;;;;9.37;6.73;;;;;;;;;;782855;177;919827;-67
2024/03/09 13:15:25;;;;;;;15.40;8.63;;;;;;;;;;784798;175;921696;-70
2024/03/09 13:17:49;;;;;;;11.07;7.17;;;;;;;;;;780366;178;878700;-66
2024/03/09 13:20:18;;;;;;;14.10;9.00;;;;;;;;;;776824;178;919276;-67
2024/03/09 13:22:43;;;;;;;14.60;8.23;;;;;;;;;;788708;177;918948;-66
2024/03/09 13:25:10;;;;;;;12.50;8.53;;;;;;;;;;784694;177;918599;-67
2024/03/09 13:27:37;;;;;;;9.27;5.77;;;;;;;;;;783976;177;918988;-66
2024/03/09 13:30:09;;;;;;;11.73;6.20;;;;;;;;;;787977;175;919162;-67
2024/03/09 13:32:28;;;;;;;15.97;10.80;;;;;;;;;;787955;174;881731;-68
2024/03/09 13:34:54;;;;;;;15.27;8.10;;;;;;;;;;783559;177;990396;-67
2024/03/09 13:37:22;;;;;;;15.70;9.80;;;;;;;;;;786812;174;904787;-68
2024/03/09 13:39:46;;;;;;;18.37;10.53;;;;;;;;;;785481;173;817562;-67
2024/03/09 13:42:12;;;;;;;14.17;8.50;;;;;;;;;;784368;175;915315;-66
2024/03/09 13:44:38;;;;;;;16.87;10.80;;;;;;;;;;784766;178;768321;-67
2024/03/09 13:47:05;;;;;;;10.77;7.83;;;;;;;;;;786763;174;628283;-67
2024/03/09 13:49:29;;;;;;;18.27;11.60;;;;;;;;;;788130;174;623240;-66
2024/03/09 13:51:58;;;;;;;17.07;8.70;;;;;;;;;;782100;175;970846;-67
2024/03/09 13:54:22;;;;;;;19.70;11.02;;;;;;;;;;790131;176;632206;-67
2024/03/09 13:56:48;;;;;;;15.17;9.53;;;;;;;;;;789480;177;662370;-67
2024/03/09 13:59:15;;;;;;;17.80;11.60;;;;;;;;;;785281;174;648530;-69
2024/03/09 14:01:39;;;;;;;13.93;8.40;;;;;;;;;;785564;177;879679;-67
2024/03/09 14:04:05;;;;;;;15.80;10.83;;;;;;;;;;787835;175;620960;-66
2024/03/09 14:06:32;;;;;;;17.87;11.70;;;;;;;;;;787073;177;631826;-66